sensor_id;sensor_type;location;lat;lon;timestamp;P1;durP1;ratioP1;P2;durP2;ratioP2
75928;SDS011;64606;44.062;2.986;2023-08-24T00:02:05;11.02;;;4.18;;
75928;SDS011;64606;44.062;2.986;2023-08-24T00:04:32;13.88;;;4.43;;
75928;SDS011;64606;44.062;2.986;2023-08-24T00:06:59;13.52;;;4.32;;
75928;SDS011;64606;44.062;2.986;2023-08-24T00:09:25;15.82;;;4.40;;
75928;SDS011;64606;44.062;2.986;2023-08-24T00:11:52;13.30;;;4.10;;
75928;SDS011;64606;44.062;2.986;2023-08-24T00:14:18;17.17;;;4.65;;
75928;SDS011;64606;44.062;2.986;2023-08-24T00:16:44;13.20;;;4.63;;
75928;SDS011;64606;44.062;2.986;2023-08-24T00:19:10;14.43;;;4.22;;
75928;SDS011;64606;44.062;2.986;2023-08-24T00:21:37;9.38;;;4.30;;
75928;SDS011;64606;44.062;2.986;2023-08-24T00:24:03;11.07;;;4.50;;
75928;SDS011;64606;44.062;2.986;2023-08-24T00:26:30;14.95;;;4.55;;
75928;SDS011;64606;44.062;2.986;2023-08-24T00:28:56;16.30;;;4.47;;
75928;SDS011;64606;44.062;2.986;2023-08-24T00:31:22;16.77;;;4.25;;
75928;SDS011;64606;44.062;2.986;2023-08-24T00:33:48;14.38;;;4.47;;
75928;SDS011;64606;44.062;2.986;2023-08-24T00:36:15;10.95;;;4.85;;
75928;SDS011;64606;44.062;2.986;2023-08-24T00:38:43;15.88;;;4.95;;
75928;SDS011;64606;44.062;2.986;2023-08-24T00:41:09;13.13;;;4.60;;
75928;SDS011;64606;44.062;2.986;2023-08-24T00:43:35;12.85;;;5.07;;
75928;SDS011;64606;44.062;2.986;2023-08-24T00:46:01;15.73;;;4.55;;
75928;SDS011;64606;44.062;2.986;2023-08-24T00:48:29;16.30;;;4.75;;
75928;SDS011;64606;44.062;2.986;2023-08-24T00:50:55;14.25;;;4.70;;
75928;SDS011;64606;44.062;2.986;2023-08-24T00:53:22;13.93;;;4.88;;
75928;SDS011;64606;44.062;2.986;2023-08-24T00:55:51;12.45;;;4.45;;
75928;SDS011;64606;44.062;2.986;2023-08-24T00:58:17;13.50;;;4.63;;
75928;SDS011;64606;44.062;2.986;2023-08-24T01:00:44;17.10;;;4.97;;
75928;SDS011;64606;44.062;2.986;2023-08-24T01:03:10;13.75;;;4.38;;
75928;SDS011;64606;44.062;2.986;2023-08-24T01:05:36;13.25;;;4.47;;
75928;SDS011;64606;44.062;2.986;2023-08-24T01:08:03;13.27;;;4.45;;
75928;SDS011;64606;44.062;2.986;2023-08-24T01:10:31;14.88;;;5.25;;
75928;SDS011;64606;44.062;2.986;2023-08-24T01:13:02;14.07;;;4.13;;
75928;SDS011;64606;44.062;2.986;2023-08-24T01:18:06;14.00;;;4.35;;
75928;SDS011;64606;44.062;2.986;2023-08-24T01:20:34;13.57;;;4.53;;
75928;SDS011;64606;44.062;2.986;2023-08-24T01:23:16;11.98;;;4.72;;
75928;SDS011;64606;44.062;2.986;2023-08-24T01:25:54;14.52;;;5.13;;
75928;SDS011;64606;44.062;2.986;2023-08-24T01:28:21;15.32;;;4.72;;
75928;SDS011;64606;44.062;2.986;2023-08-24T01:30:47;14.85;;;5.03;;
75928;SDS011;64606;44.062;2.986;2023-08-24T01:33:14;11.10;;;4.38;;
75928;SDS011;64606;44.062;2.986;2023-08-24T01:35:40;18.75;;;5.30;;
75928;SDS011;64606;44.062;2.986;2023-08-24T01:38:06;12.77;;;5.28;;
75928;SDS011;64606;44.062;2.986;2023-08-24T01:43:24;13.65;;;4.95;;
75928;SDS011;64606;44.062;2.986;2023-08-24T01:45:51;13.77;;;4.63;;
75928;SDS011;64606;44.062;2.986;2023-08-24T01:48:18;10.73;;;4.35;;
75928;SDS011;64606;44.062;2.986;2023-08-24T01:50:45;10.68;;;4.45;;
75928;SDS011;64606;44.062;2.986;2023-08-24T01:53:11;10.07;;;4.30;;
75928;SDS011;64606;44.062;2.986;2023-08-24T01:55:37;12.50;;;4.63;;
75928;SDS011;64606;44.062;2.986;2023-08-24T01:58:04;13.77;;;4.53;;
75928;SDS011;64606;44.062;2.986;2023-08-24T02:00:30;12.63;;;4.40;;
75928;SDS011;64606;44.062;2.986;2023-08-24T02:02:56;12.05;;;4.97;;
75928;SDS011;64606;44.062;2.986;2023-08-24T02:05:22;16.20;;;4.53;;
75928;SDS011;64606;44.062;2.986;2023-08-24T02:07:52;11.70;;;4.63;;
75928;SDS011;64606;44.062;2.986;2023-08-24T02:10:19;14.05;;;4.72;;
75928;SDS011;64606;44.062;2.986;2023-08-24T02:12:45;16.10;;;5.05;;
75928;SDS011;64606;44.062;2.986;2023-08-24T02:15:11;15.20;;;5.22;;
75928;SDS011;64606;44.062;2.986;2023-08-24T02:17:37;11.88;;;4.95;;
75928;SDS011;64606;44.062;2.986;2023-08-24T02:20:04;13.13;;;4.78;;
75928;SDS011;64606;44.062;2.986;2023-08-24T02:22:31;14.27;;;5.20;;
75928;SDS011;64606;44.062;2.986;2023-08-24T02:24:57;12.30;;;4.82;;
75928;SDS011;64606;44.062;2.986;2023-08-24T02:27:23;8.95;;;4.32;;
75928;SDS011;64606;44.062;2.986;2023-08-24T02:29:49;10.57;;;4.40;;
75928;SDS011;64606;44.062;2.986;2023-08-24T02:32:15;14.88;;;4.95;;
75928;SDS011;64606;44.062;2.986;2023-08-24T02:34:41;17.45;;;5.30;;
75928;SDS011;64606;44.062;2.986;2023-08-24T02:37:07;14.48;;;4.90;;
75928;SDS011;64606;44.062;2.986;2023-08-24T02:39:33;12.18;;;4.28;;
75928;SDS011;64606;44.062;2.986;2023-08-24T02:42:00;12.07;;;4.88;;
75928;SDS011;64606;44.062;2.986;2023-08-24T02:44:26;17.92;;;5.00;;
75928;SDS011;64606;44.062;2.986;2023-08-24T02:46:53;13.18;;;4.63;;
75928;SDS011;64606;44.062;2.986;2023-08-24T02:49:19;13.82;;;5.28;;
75928;SDS011;64606;44.062;2.986;2023-08-24T02:51:45;12.60;;;5.30;;
75928;SDS011;64606;44.062;2.986;2023-08-24T02:54:12;10.45;;;5.00;;
75928;SDS011;64606;44.062;2.986;2023-08-24T02:56:38;9.25;;;4.63;;
75928;SDS011;64606;44.062;2.986;2023-08-24T02:59:04;14.38;;;4.78;;
75928;SDS011;64606;44.062;2.986;2023-08-24T03:01:30;16.05;;;4.80;;
75928;SDS011;64606;44.062;2.986;2023-08-24T03:03:56;12.43;;;5.00;;
75928;SDS011;64606;44.062;2.986;2023-08-24T03:06:22;14.30;;;4.60;;
75928;SDS011;64606;44.062;2.986;2023-08-24T03:08:49;11.48;;;5.38;;
75928;SDS011;64606;44.062;2.986;2023-08-24T03:11:15;12.45;;;4.70;;
75928;SDS011;64606;44.062;2.986;2023-08-24T03:13:41;16.90;;;5.35;;
75928;SDS011;64606;44.062;2.986;2023-08-24T03:16:08;17.70;;;5.35;;
75928;SDS011;64606;44.062;2.986;2023-08-24T03:18:34;17.83;;;5.30;;
75928;SDS011;64606;44.062;2.986;2023-08-24T03:21:00;12.02;;;4.78;;
75928;SDS011;64606;44.062;2.986;2023-08-24T03:23:26;12.48;;;5.10;;
75928;SDS011;64606;44.062;2.986;2023-08-24T03:25:53;14.02;;;5.22;;
75928;SDS011;64606;44.062;2.986;2023-08-24T03:28:19;16.58;;;5.25;;
75928;SDS011;64606;44.062;2.986;2023-08-24T03:30:46;12.32;;;4.82;;
75928;SDS011;64606;44.062;2.986;2023-08-24T03:33:13;14.20;;;4.93;;
75928;SDS011;64606;44.062;2.986;2023-08-24T03:35:39;11.63;;;4.90;;
75928;SDS011;64606;44.062;2.986;2023-08-24T03:38:05;13.93;;;5.05;;
75928;SDS011;64606;44.062;2.986;2023-08-24T03:40:31;10.13;;;4.95;;
75928;SDS011;64606;44.062;2.986;2023-08-24T03:42:57;12.13;;;4.75;;
75928;SDS011;64606;44.062;2.986;2023-08-24T03:45:23;13.68;;;5.30;;
75928;SDS011;64606;44.062;2.986;2023-08-24T03:47:50;11.55;;;4.93;;
75928;SDS011;64606;44.062;2.986;2023-08-24T03:50:16;14.25;;;5.05;;
75928;SDS011;64606;44.062;2.986;2023-08-24T03:52:42;11.95;;;5.43;;
75928;SDS011;64606;44.062;2.986;2023-08-24T03:55:08;14.48;;;4.93;;
75928;SDS011;64606;44.062;2.986;2023-08-24T03:57:34;16.73;;;5.32;;
75928;SDS011;64606;44.062;2.986;2023-08-24T04:00:01;10.80;;;4.65;;
75928;SDS011;64606;44.062;2.986;2023-08-24T04:02:30;13.90;;;5.22;;
75928;SDS011;64606;44.062;2.986;2023-08-24T04:04:56;17.10;;;5.47;;
75928;SDS011;64606;44.062;2.986;2023-08-24T04:07:23;12.13;;;4.78;;
75928;SDS011;64606;44.062;2.986;2023-08-24T04:09:49;12.23;;;5.32;;
75928;SDS011;64606;44.062;2.986;2023-08-24T04:12:15;16.45;;;5.75;;
75928;SDS011;64606;44.062;2.986;2023-08-24T04:14:41;11.70;;;5.43;;
75928;SDS011;64606;44.062;2.986;2023-08-24T04:17:07;15.13;;;5.25;;
75928;SDS011;64606;44.062;2.986;2023-08-24T04:19:33;15.20;;;5.15;;
75928;SDS011;64606;44.062;2.986;2023-08-24T04:21:59;15.50;;;5.15;;
75928;SDS011;64606;44.062;2.986;2023-08-24T04:24:25;13.77;;;5.32;;
75928;SDS011;64606;44.062;2.986;2023-08-24T04:26:52;13.77;;;5.18;;
75928;SDS011;64606;44.062;2.986;2023-08-24T04:29:18;14.05;;;5.88;;
75928;SDS011;64606;44.062;2.986;2023-08-24T04:31:44;21.58;;;7.22;;
75928;SDS011;64606;44.062;2.986;2023-08-24T04:34:10;26.55;;;8.88;;
75928;SDS011;64606;44.062;2.986;2023-08-24T04:36:36;16.92;;;6.38;;
75928;SDS011;64606;44.062;2.986;2023-08-24T04:39:03;20.52;;;5.75;;
75928;SDS011;64606;44.062;2.986;2023-08-24T04:41:29;29.48;;;8.20;;
75928;SDS011;64606;44.062;2.986;2023-08-24T04:43:55;24.73;;;7.53;;
75928;SDS011;64606;44.062;2.986;2023-08-24T04:46:21;20.50;;;6.72;;
75928;SDS011;64606;44.062;2.986;2023-08-24T04:48:47;27.55;;;6.88;;
75928;SDS011;64606;44.062;2.986;2023-08-24T04:51:13;24.23;;;7.32;;
75928;SDS011;64606;44.062;2.986;2023-08-24T04:53:39;18.55;;;7.25;;
75928;SDS011;64606;44.062;2.986;2023-08-24T04:56:06;22.85;;;6.07;;
75928;SDS011;64606;44.062;2.986;2023-08-24T04:58:32;12.02;;;5.50;;
75928;SDS011;64606;44.062;2.986;2023-08-24T05:00:59;15.82;;;5.60;;
75928;SDS011;64606;44.062;2.986;2023-08-24T05:03:25;16.98;;;5.68;;
75928;SDS011;64606;44.062;2.986;2023-08-24T05:05:51;21.60;;;8.00;;
75928;SDS011;64606;44.062;2.986;2023-08-24T05:08:17;14.48;;;5.65;;
75928;SDS011;64606;44.062;2.986;2023-08-24T05:10:43;15.80;;;5.65;;
75928;SDS011;64606;44.062;2.986;2023-08-24T05:13:10;16.55;;;5.28;;
75928;SDS011;64606;44.062;2.986;2023-08-24T05:15:36;16.40;;;6.00;;
75928;SDS011;64606;44.062;2.986;2023-08-24T05:18:02;13.63;;;5.68;;
75928;SDS011;64606;44.062;2.986;2023-08-24T05:20:29;17.38;;;5.25;;
75928;SDS011;64606;44.062;2.986;2023-08-24T05:22:55;11.23;;;5.30;;
75928;SDS011;64606;44.062;2.986;2023-08-24T05:25:21;13.50;;;5.40;;
75928;SDS011;64606;44.062;2.986;2023-08-24T05:27:47;22.85;;;6.85;;
75928;SDS011;64606;44.062;2.986;2023-08-24T05:30:14;14.57;;;5.97;;
75928;SDS011;64606;44.062;2.986;2023-08-24T05:32:40;15.40;;;5.55;;
75928;SDS011;64606;44.062;2.986;2023-08-24T05:35:06;20.15;;;6.20;;
75928;SDS011;64606;44.062;2.986;2023-08-24T05:37:33;16.30;;;5.70;;
75928;SDS011;64606;44.062;2.986;2023-08-24T05:39:59;11.25;;;5.50;;
75928;SDS011;64606;44.062;2.986;2023-08-24T05:42:26;17.15;;;5.72;;
75928;SDS011;64606;44.062;2.986;2023-08-24T05:44:52;13.57;;;5.55;;
75928;SDS011;64606;44.062;2.986;2023-08-24T05:47:18;20.27;;;5.55;;
75928;SDS011;64606;44.062;2.986;2023-08-24T05:49:45;10.70;;;5.20;;
75928;SDS011;64606;44.062;2.986;2023-08-24T05:52:11;12.77;;;4.88;;
75928;SDS011;64606;44.062;2.986;2023-08-24T05:54:37;12.15;;;5.50;;
75928;SDS011;64606;44.062;2.986;2023-08-24T05:57:04;11.82;;;6.05;;
75928;SDS011;64606;44.062;2.986;2023-08-24T05:59:30;18.17;;;5.72;;
75928;SDS011;64606;44.062;2.986;2023-08-24T06:01:56;17.27;;;5.18;;
75928;SDS011;64606;44.062;2.986;2023-08-24T06:04:22;15.32;;;6.30;;
75928;SDS011;64606;44.062;2.986;2023-08-24T06:06:48;12.73;;;6.13;;
75928;SDS011;64606;44.062;2.986;2023-08-24T06:09:14;13.07;;;5.53;;
75928;SDS011;64606;44.062;2.986;2023-08-24T06:11:41;13.60;;;5.82;;
75928;SDS011;64606;44.062;2.986;2023-08-24T06:14:07;14.10;;;5.50;;
75928;SDS011;64606;44.062;2.986;2023-08-24T06:16:33;15.38;;;5.55;;
75928;SDS011;64606;44.062;2.986;2023-08-24T06:18:59;16.15;;;5.57;;
75928;SDS011;64606;44.062;2.986;2023-08-24T06:21:25;12.68;;;6.20;;
75928;SDS011;64606;44.062;2.986;2023-08-24T06:23:51;19.20;;;6.68;;
75928;SDS011;64606;44.062;2.986;2023-08-24T06:26:17;23.13;;;6.63;;
75928;SDS011;64606;44.062;2.986;2023-08-24T06:28:43;15.65;;;7.03;;
75928;SDS011;64606;44.062;2.986;2023-08-24T06:31:10;18.23;;;6.72;;
75928;SDS011;64606;44.062;2.986;2023-08-24T06:33:37;17.23;;;5.68;;
75928;SDS011;64606;44.062;2.986;2023-08-24T06:36:04;16.80;;;6.50;;
75928;SDS011;64606;44.062;2.986;2023-08-24T06:38:30;24.58;;;8.18;;
75928;SDS011;64606;44.062;2.986;2023-08-24T06:41:00;22.48;;;8.38;;
75928;SDS011;64606;44.062;2.986;2023-08-24T06:43:26;14.45;;;7.20;;
75928;SDS011;64606;44.062;2.986;2023-08-24T06:45:54;22.38;;;7.25;;
75928;SDS011;64606;44.062;2.986;2023-08-24T06:48:20;16.88;;;7.55;;
75928;SDS011;64606;44.062;2.986;2023-08-24T06:50:46;18.63;;;7.43;;
75928;SDS011;64606;44.062;2.986;2023-08-24T06:53:12;23.90;;;7.78;;
75928;SDS011;64606;44.062;2.986;2023-08-24T06:55:40;17.98;;;7.32;;
75928;SDS011;64606;44.062;2.986;2023-08-24T06:58:06;24.35;;;8.07;;
75928;SDS011;64606;44.062;2.986;2023-08-24T07:00:32;16.95;;;7.15;;
75928;SDS011;64606;44.062;2.986;2023-08-24T07:03:01;15.20;;;7.22;;
75928;SDS011;64606;44.062;2.986;2023-08-24T07:05:27;20.13;;;7.65;;
75928;SDS011;64606;44.062;2.986;2023-08-24T07:07:54;19.42;;;7.63;;
75928;SDS011;64606;44.062;2.986;2023-08-24T07:10:20;20.77;;;8.32;;
75928;SDS011;64606;44.062;2.986;2023-08-24T07:12:46;17.58;;;7.65;;
75928;SDS011;64606;44.062;2.986;2023-08-24T07:15:12;15.13;;;7.18;;
75928;SDS011;64606;44.062;2.986;2023-08-24T07:17:39;27.38;;;8.23;;
75928;SDS011;64606;44.062;2.986;2023-08-24T07:20:05;21.13;;;8.07;;
75928;SDS011;64606;44.062;2.986;2023-08-24T07:22:32;20.25;;;8.23;;
75928;SDS011;64606;44.062;2.986;2023-08-24T07:24:59;16.40;;;7.28;;
75928;SDS011;64606;44.062;2.986;2023-08-24T07:27:25;25.05;;;7.88;;
75928;SDS011;64606;44.062;2.986;2023-08-24T07:29:53;27.10;;;9.23;;
75928;SDS011;64606;44.062;2.986;2023-08-24T07:32:19;24.30;;;7.55;;
75928;SDS011;64606;44.062;2.986;2023-08-24T07:34:45;22.60;;;8.52;;
75928;SDS011;64606;44.062;2.986;2023-08-24T07:37:12;20.00;;;8.85;;
75928;SDS011;64606;44.062;2.986;2023-08-24T07:39:38;20.27;;;8.00;;
75928;SDS011;64606;44.062;2.986;2023-08-24T07:42:04;18.15;;;7.63;;
75928;SDS011;64606;44.062;2.986;2023-08-24T07:44:30;15.70;;;7.70;;
75928;SDS011;64606;44.062;2.986;2023-08-24T07:46:56;21.90;;;7.65;;
75928;SDS011;64606;44.062;2.986;2023-08-24T07:49:22;18.63;;;8.23;;
75928;SDS011;64606;44.062;2.986;2023-08-24T07:51:48;15.25;;;7.57;;
75928;SDS011;64606;44.062;2.986;2023-08-24T07:54:15;19.58;;;7.60;;
75928;SDS011;64606;44.062;2.986;2023-08-24T07:56:41;18.02;;;7.82;;
75928;SDS011;64606;44.062;2.986;2023-08-24T07:59:07;16.88;;;7.70;;
75928;SDS011;64606;44.062;2.986;2023-08-24T08:01:33;19.23;;;6.90;;
75928;SDS011;64606;44.062;2.986;2023-08-24T08:03:59;19.48;;;7.60;;
75928;SDS011;64606;44.062;2.986;2023-08-24T08:06:25;13.15;;;6.70;;
75928;SDS011;64606;44.062;2.986;2023-08-24T08:08:52;23.52;;;7.38;;
75928;SDS011;64606;44.062;2.986;2023-08-24T08:11:18;14.70;;;7.40;;
75928;SDS011;64606;44.062;2.986;2023-08-24T08:13:44;19.27;;;6.85;;
75928;SDS011;64606;44.062;2.986;2023-08-24T08:16:10;17.67;;;7.93;;
75928;SDS011;64606;44.062;2.986;2023-08-24T08:18:37;15.80;;;6.88;;
75928;SDS011;64606;44.062;2.986;2023-08-24T08:21:10;21.25;;;7.63;;
75928;SDS011;64606;44.062;2.986;2023-08-24T08:23:37;24.58;;;9.93;;
75928;SDS011;64606;44.062;2.986;2023-08-24T08:26:03;18.50;;;7.70;;
75928;SDS011;64606;44.062;2.986;2023-08-24T08:28:29;21.40;;;8.68;;
75928;SDS011;64606;44.062;2.986;2023-08-24T08:30:58;13.93;;;7.10;;
75928;SDS011;64606;44.062;2.986;2023-08-24T08:33:24;20.90;;;7.30;;
75928;SDS011;64606;44.062;2.986;2023-08-24T08:35:50;19.55;;;6.65;;
75928;SDS011;64606;44.062;2.986;2023-08-24T08:38:17;14.00;;;6.63;;
75928;SDS011;64606;44.062;2.986;2023-08-24T08:40:43;16.25;;;6.95;;
75928;SDS011;64606;44.062;2.986;2023-08-24T08:43:10;19.63;;;7.38;;
75928;SDS011;64606;44.062;2.986;2023-08-24T08:45:36;15.55;;;6.82;;
75928;SDS011;64606;44.062;2.986;2023-08-24T08:48:02;14.18;;;6.72;;
75928;SDS011;64606;44.062;2.986;2023-08-24T08:50:31;23.85;;;8.07;;
75928;SDS011;64606;44.062;2.986;2023-08-24T08:52:58;11.70;;;6.40;;
75928;SDS011;64606;44.062;2.986;2023-08-24T08:55:24;14.13;;;7.30;;
75928;SDS011;64606;44.062;2.986;2023-08-24T08:57:51;20.13;;;6.20;;
75928;SDS011;64606;44.062;2.986;2023-08-24T09:00:19;16.05;;;7.20;;
75928;SDS011;64606;44.062;2.986;2023-08-24T09:02:45;17.85;;;6.28;;
75928;SDS011;64606;44.062;2.986;2023-08-24T09:05:14;13.52;;;6.32;;
75928;SDS011;64606;44.062;2.986;2023-08-24T09:07:40;12.38;;;6.25;;
75928;SDS011;64606;44.062;2.986;2023-08-24T09:10:07;14.02;;;6.22;;
75928;SDS011;64606;44.062;2.986;2023-08-24T09:12:34;12.15;;;5.97;;
75928;SDS011;64606;44.062;2.986;2023-08-24T09:15:04;9.95;;;5.65;;
75928;SDS011;64606;44.062;2.986;2023-08-24T09:17:31;18.85;;;6.10;;
75928;SDS011;64606;44.062;2.986;2023-08-24T09:19:58;10.90;;;5.03;;
75928;SDS011;64606;44.062;2.986;2023-08-24T09:22:24;12.13;;;5.20;;
75928;SDS011;64606;44.062;2.986;2023-08-24T09:24:50;9.60;;;5.72;;
75928;SDS011;64606;44.062;2.986;2023-08-24T09:27:17;15.40;;;5.15;;
75928;SDS011;64606;44.062;2.986;2023-08-24T09:29:47;12.82;;;4.75;;
75928;SDS011;64606;44.062;2.986;2023-08-24T09:32:13;11.70;;;4.38;;
75928;SDS011;64606;44.062;2.986;2023-08-24T09:34:39;9.05;;;3.50;;
75928;SDS011;64606;44.062;2.986;2023-08-24T09:37:12;10.80;;;3.75;;
75928;SDS011;64606;44.062;2.986;2023-08-24T09:39:39;11.85;;;3.70;;
75928;SDS011;64606;44.062;2.986;2023-08-24T09:42:05;5.35;;;3.80;;
75928;SDS011;64606;44.062;2.986;2023-08-24T09:44:31;7.95;;;3.78;;
75928;SDS011;64606;44.062;2.986;2023-08-24T09:46:57;6.35;;;3.70;;
75928;SDS011;64606;44.062;2.986;2023-08-24T09:49:24;11.00;;;3.50;;
75928;SDS011;64606;44.062;2.986;2023-08-24T09:51:51;8.30;;;3.15;;
75928;SDS011;64606;44.062;2.986;2023-08-24T09:54:20;9.70;;;3.58;;
75928;SDS011;64606;44.062;2.986;2023-08-24T09:56:47;8.65;;;3.55;;
75928;SDS011;64606;44.062;2.986;2023-08-24T09:59:15;8.60;;;4.00;;
75928;SDS011;64606;44.062;2.986;2023-08-24T10:01:47;5.43;;;2.90;;
75928;SDS011;64606;44.062;2.986;2023-08-24T10:04:23;8.55;;;3.30;;
75928;SDS011;64606;44.062;2.986;2023-08-24T10:06:59;5.35;;;2.67;;
75928;SDS011;64606;44.062;2.986;2023-08-24T10:09:27;5.88;;;3.03;;
75928;SDS011;64606;44.062;2.986;2023-08-24T10:11:55;6.13;;;3.00;;
75928;SDS011;64606;44.062;2.986;2023-08-24T10:14:41;5.05;;;3.00;;
75928;SDS011;64606;44.062;2.986;2023-08-24T10:17:10;6.90;;;2.88;;
75928;SDS011;64606;44.062;2.986;2023-08-24T10:19:37;6.32;;;2.95;;
75928;SDS011;64606;44.062;2.986;2023-08-24T10:22:03;5.25;;;2.50;;
75928;SDS011;64606;44.062;2.986;2023-08-24T10:24:31;4.90;;;3.00;;
75928;SDS011;64606;44.062;2.986;2023-08-24T10:26:58;9.80;;;3.00;;
75928;SDS011;64606;44.062;2.986;2023-08-24T10:29:25;6.63;;;3.08;;
75928;SDS011;64606;44.062;2.986;2023-08-24T10:31:53;6.05;;;2.97;;
75928;SDS011;64606;44.062;2.986;2023-08-24T10:34:20;4.75;;;2.70;;
75928;SDS011;64606;44.062;2.986;2023-08-24T10:36:49;6.05;;;2.97;;
75928;SDS011;64606;44.062;2.986;2023-08-24T10:39:16;3.92;;;2.72;;
75928;SDS011;64606;44.062;2.986;2023-08-24T10:41:50;5.55;;;2.88;;
75928;SDS011;64606;44.062;2.986;2023-08-24T10:44:35;5.03;;;2.60;;
75928;SDS011;64606;44.062;2.986;2023-08-24T10:47:11;4.95;;;3.08;;
75928;SDS011;64606;44.062;2.986;2023-08-24T10:49:39;8.55;;;3.35;;
75928;SDS011;64606;44.062;2.986;2023-08-24T10:52:18;11.38;;;3.03;;
75928;SDS011;64606;44.062;2.986;2023-08-24T10:54:45;8.15;;;2.78;;
75928;SDS011;64606;44.062;2.986;2023-08-24T10:57:20;7.00;;;2.72;;
75928;SDS011;64606;44.062;2.986;2023-08-24T11:00:08;6.22;;;3.20;;
75928;SDS011;64606;44.062;2.986;2023-08-24T11:02:42;5.63;;;2.92;;
75928;SDS011;64606;44.062;2.986;2023-08-24T11:07:56;9.15;;;3.33;;
75928;SDS011;64606;44.062;2.986;2023-08-24T11:10:24;5.53;;;3.10;;
75928;SDS011;64606;44.062;2.986;2023-08-24T11:15:32;5.82;;;3.13;;
75928;SDS011;64606;44.062;2.986;2023-08-24T11:18:11;10.88;;;3.08;;
75928;SDS011;64606;44.062;2.986;2023-08-24T11:20:37;4.95;;;3.38;;
75928;SDS011;64606;44.062;2.986;2023-08-24T11:23:03;8.10;;;3.33;;
75928;SDS011;64606;44.062;2.986;2023-08-24T11:25:30;4.03;;;2.75;;
75928;SDS011;64606;44.062;2.986;2023-08-24T11:27:57;8.43;;;3.33;;
75928;SDS011;64606;44.062;2.986;2023-08-24T11:30:23;5.55;;;2.92;;
75928;SDS011;64606;44.062;2.986;2023-08-24T11:32:52;4.20;;;2.80;;
75928;SDS011;64606;44.062;2.986;2023-08-24T11:35:18;6.80;;;3.58;;
75928;SDS011;64606;44.062;2.986;2023-08-24T11:37:50;8.50;;;3.55;;
75928;SDS011;64606;44.062;2.986;2023-08-24T11:40:17;6.90;;;3.50;;
75928;SDS011;64606;44.062;2.986;2023-08-24T11:42:44;10.07;;;3.47;;
75928;SDS011;64606;44.062;2.986;2023-08-24T11:45:11;5.45;;;3.58;;
75928;SDS011;64606;44.062;2.986;2023-08-24T11:47:40;6.43;;;3.30;;
75928;SDS011;64606;44.062;2.986;2023-08-24T11:50:07;5.68;;;3.60;;
75928;SDS011;64606;44.062;2.986;2023-08-24T11:52:38;9.23;;;3.90;;
75928;SDS011;64606;44.062;2.986;2023-08-24T11:55:05;9.38;;;3.88;;
75928;SDS011;64606;44.062;2.986;2023-08-24T11:57:35;7.95;;;3.63;;
75928;SDS011;64606;44.062;2.986;2023-08-24T12:00:04;7.72;;;3.40;;
75928;SDS011;64606;44.062;2.986;2023-08-24T12:02:30;9.38;;;3.20;;
75928;SDS011;64606;44.062;2.986;2023-08-24T12:04:57;8.32;;;3.95;;
75928;SDS011;64606;44.062;2.986;2023-08-24T12:07:24;9.18;;;4.03;;
75928;SDS011;64606;44.062;2.986;2023-08-24T12:09:51;6.97;;;3.42;;
75928;SDS011;64606;44.062;2.986;2023-08-24T12:12:19;13.27;;;4.00;;
75928;SDS011;64606;44.062;2.986;2023-08-24T12:14:46;6.32;;;3.25;;
75928;SDS011;64606;44.062;2.986;2023-08-24T12:17:13;6.68;;;3.10;;
75928;SDS011;64606;44.062;2.986;2023-08-24T12:19:53;5.90;;;3.28;;
75928;SDS011;64606;44.062;2.986;2023-08-24T12:22:21;5.55;;;3.42;;
75928;SDS011;64606;44.062;2.986;2023-08-24T12:24:47;6.32;;;3.10;;
75928;SDS011;64606;44.062;2.986;2023-08-24T12:27:20;5.10;;;3.42;;
75928;SDS011;64606;44.062;2.986;2023-08-24T12:29:48;4.28;;;3.03;;
75928;SDS011;64606;44.062;2.986;2023-08-24T12:32:14;6.50;;;3.53;;
75928;SDS011;64606;44.062;2.986;2023-08-24T12:34:41;9.88;;;3.53;;
75928;SDS011;64606;44.062;2.986;2023-08-24T12:37:08;10.15;;;3.45;;
75928;SDS011;64606;44.062;2.986;2023-08-24T12:39:38;107.68;;;12.20;;
75928;SDS011;64606;44.062;2.986;2023-08-24T12:42:05;8.45;;;3.33;;
75928;SDS011;64606;44.062;2.986;2023-08-24T12:44:31;8.10;;;3.15;;
75928;SDS011;64606;44.062;2.986;2023-08-24T12:46:58;5.57;;;3.60;;
75928;SDS011;64606;44.062;2.986;2023-08-24T12:49:24;10.10;;;3.38;;
75928;SDS011;64606;44.062;2.986;2023-08-24T12:51:50;10.05;;;4.20;;
75928;SDS011;64606;44.062;2.986;2023-08-24T12:54:16;8.57;;;3.53;;
75928;SDS011;64606;44.062;2.986;2023-08-24T12:56:42;6.97;;;3.22;;
75928;SDS011;64606;44.062;2.986;2023-08-24T12:59:09;8.48;;;4.05;;
75928;SDS011;64606;44.062;2.986;2023-08-24T13:01:35;10.85;;;3.78;;
75928;SDS011;64606;44.062;2.986;2023-08-24T13:04:01;7.20;;;3.88;;
75928;SDS011;64606;44.062;2.986;2023-08-24T13:06:27;7.00;;;3.47;;
75928;SDS011;64606;44.062;2.986;2023-08-24T13:08:53;6.53;;;3.38;;
75928;SDS011;64606;44.062;2.986;2023-08-24T13:11:20;6.68;;;3.60;;
75928;SDS011;64606;44.062;2.986;2023-08-24T13:13:46;6.45;;;3.50;;
75928;SDS011;64606;44.062;2.986;2023-08-24T13:16:13;7.85;;;3.83;;
75928;SDS011;64606;44.062;2.986;2023-08-24T13:18:39;5.38;;;3.13;;
75928;SDS011;64606;44.062;2.986;2023-08-24T13:21:05;5.10;;;3.47;;
75928;SDS011;64606;44.062;2.986;2023-08-24T13:23:31;12.50;;;3.38;;
75928;SDS011;64606;44.062;2.986;2023-08-24T13:25:58;9.77;;;4.47;;
75928;SDS011;64606;44.062;2.986;2023-08-24T13:28:25;6.32;;;3.25;;
75928;SDS011;64606;44.062;2.986;2023-08-24T13:30:51;6.13;;;3.20;;
75928;SDS011;64606;44.062;2.986;2023-08-24T13:33:17;13.02;;;4.45;;
75928;SDS011;64606;44.062;2.986;2023-08-24T13:35:44;8.25;;;3.50;;
75928;SDS011;64606;44.062;2.986;2023-08-24T13:38:11;5.15;;;3.50;;
75928;SDS011;64606;44.062;2.986;2023-08-24T13:40:37;7.82;;;3.70;;
75928;SDS011;64606;44.062;2.986;2023-08-24T13:43:03;6.68;;;3.15;;
75928;SDS011;64606;44.062;2.986;2023-08-24T13:45:29;4.30;;;3.33;;
75928;SDS011;64606;44.062;2.986;2023-08-24T13:47:56;6.50;;;3.67;;
75928;SDS011;64606;44.062;2.986;2023-08-24T13:50:22;42.90;;;5.78;;
75928;SDS011;64606;44.062;2.986;2023-08-24T13:52:49;5.07;;;3.40;;
75928;SDS011;64606;44.062;2.986;2023-08-24T13:55:15;8.20;;;3.50;;
75928;SDS011;64606;44.062;2.986;2023-08-24T13:57:42;8.52;;;3.50;;
75928;SDS011;64606;44.062;2.986;2023-08-24T14:00:08;7.93;;;3.30;;
75928;SDS011;64606;44.062;2.986;2023-08-24T14:02:35;6.60;;;3.30;;
75928;SDS011;64606;44.062;2.986;2023-08-24T14:05:01;12.77;;;3.47;;
75928;SDS011;64606;44.062;2.986;2023-08-24T14:07:27;6.03;;;3.50;;
75928;SDS011;64606;44.062;2.986;2023-08-24T14:09:53;4.50;;;3.05;;
75928;SDS011;64606;44.062;2.986;2023-08-24T14:12:19;6.43;;;3.17;;
75928;SDS011;64606;44.062;2.986;2023-08-24T14:14:46;5.72;;;3.40;;
75928;SDS011;64606;44.062;2.986;2023-08-24T14:17:12;4.45;;;3.20;;
75928;SDS011;64606;44.062;2.986;2023-08-24T14:19:38;5.43;;;3.15;;
75928;SDS011;64606;44.062;2.986;2023-08-24T14:22:04;21.95;;;3.58;;
75928;SDS011;64606;44.062;2.986;2023-08-24T14:24:30;7.57;;;3.03;;
75928;SDS011;64606;44.062;2.986;2023-08-24T14:26:56;6.97;;;3.15;;
75928;SDS011;64606;44.062;2.986;2023-08-24T14:29:22;7.47;;;3.30;;
75928;SDS011;64606;44.062;2.986;2023-08-24T14:31:48;6.15;;;3.30;;
75928;SDS011;64606;44.062;2.986;2023-08-24T14:34:14;6.93;;;3.28;;
75928;SDS011;64606;44.062;2.986;2023-08-24T14:36:40;6.13;;;2.80;;
75928;SDS011;64606;44.062;2.986;2023-08-24T14:39:06;4.10;;;3.03;;
75928;SDS011;64606;44.062;2.986;2023-08-24T14:41:33;6.25;;;2.90;;
75928;SDS011;64606;44.062;2.986;2023-08-24T14:43:59;6.25;;;2.88;;
75928;SDS011;64606;44.062;2.986;2023-08-24T14:46:25;5.05;;;2.90;;
75928;SDS011;64606;44.062;2.986;2023-08-24T14:48:51;7.85;;;3.38;;